RAAF Base Curtin
YCIN : now visible

Airfield :











YOU CAN JOIN US ON...

 
LOGIN :

Register | Disclaimer

   EN    FR    IT 

 









Legend :    VFR   Marginal VFR   IFR   Intensive IFR   Very Intensive IFR
Visi :
Ceiling :
>= 8 km
>= 3000ft
5 to 8 km
1000 to 3000 ft
1500m to 5 km
500 to 1000 ft
800 to 1500m
200 to 500 ft
< 800m
< 200 ft
Symbols :   Thunderstorms  Fog  Heavy snow  Heavy precipitations  Wind > 20 kt






- Airport Elevation : 300 ft


YCIN - RAAF Base Curtin

CURRENT METAR :
  • 260530Z AUTO 31011KT 9999 // NCD 38/15 Q1007 RF00.0/000.0

EXPIRED METARs :
  • 260500Z AUTO 31011KT 9999 // NCD 38/15 Q1008 RF00.0/000.0
  • 260430Z AUTO 33011KT 9999 // NCD 37/15 Q1008 RF00.0/000.0
  • 260400Z AUTO 32011G21KT 9999 // NCD 36/14 Q1009 RF00.0/000.0
  • 260330Z AUTO 31011KT 270V350 9999 // NCD 36/16 Q1009 RF00.0/000.0
  • 260300Z AUTO 29010KT 9999 // NCD 36/16 Q1010 RF00.0/000.0

TAF TAF YCIN
Valid from the 26 at 02:00 until the 26 at 14:00 UTC


260132Z 2602/2614 32010KT CAVOK
YBBB FIR / Oceania



MET'MAP, your aeronautical weather chart ! - Copyright ORBIFLY December 2007 - Disclaimer

ORBIFLY MET'MAP TEAM :

Programming & Development : Alexandra Zaïnal
Concept & original design : Baudouin d'Aumeries
Assistance for programming : Marc-Olivier Méhu
Technical & hardware support : Manuel Goepfert

Contact : metmap@orbifly.com




SOURCES & CREDITS :

   NOAA       Earth
Advisory